createdAt,value
2023-04-26T00:03:01.934Z,5.88
2023-04-26T00:06:08.875Z,6.15
2023-04-26T00:09:13.468Z,5.47
2023-04-26T00:12:18.290Z,5.96
2023-04-26T00:15:22.773Z,6.15
2023-04-26T00:18:27.245Z,6.14
2023-04-26T00:21:31.918Z,6.00
2023-04-26T00:24:36.497Z,5.87
2023-04-26T00:27:40.996Z,6.01
2023-04-26T00:30:48.811Z,6.16
2023-04-26T00:33:53.359Z,5.87
2023-04-26T00:36:57.905Z,6.10
2023-04-26T00:40:02.619Z,6.07
2023-04-26T00:43:07.408Z,6.32
2023-04-26T00:46:12.512Z,6.30
2023-04-26T00:49:19.539Z,6.47
2023-04-26T00:52:24.678Z,6.32
2023-04-26T00:55:29.542Z,6.50
2023-04-26T00:58:34.096Z,6.82
2023-04-26T01:01:40.612Z,6.99
2023-04-26T01:04:46.764Z,6.97
2023-04-26T01:07:51.991Z,7.01
2023-04-26T01:10:57.290Z,6.46
2023-04-26T01:14:02.129Z,6.62
2023-04-26T01:17:06.843Z,6.86
2023-04-26T01:20:14.339Z,6.82
2023-04-26T01:23:18.930Z,6.84
2023-04-26T01:26:23.401Z,7.10
2023-04-26T01:29:28.119Z,7.01
2023-04-26T01:32:34.906Z,6.52
2023-04-26T01:35:39.535Z,6.67
2023-04-26T01:38:44.092Z,6.57
2023-04-26T01:41:48.546Z,6.50
2023-04-26T01:44:53.022Z,6.47
2023-04-26T01:47:58.293Z,6.68
2023-04-26T01:51:02.788Z,6.34
2023-04-26T01:54:08.691Z,6.28
2023-04-26T01:57:13.191Z,6.95
2023-04-26T02:00:17.870Z,6.62
2023-04-26T02:03:25.878Z,6.30
2023-04-26T02:06:31.604Z,6.24
2023-04-26T02:09:36.101Z,6.59
2023-04-26T02:12:41.808Z,6.58
2023-04-26T02:15:47.377Z,5.98
2023-04-26T02:18:53.513Z,6.37
2023-04-26T02:21:58.553Z,6.15
2023-04-26T02:25:03.390Z,6.15
2023-04-26T02:28:08.004Z,6.57
2023-04-26T02:31:12.488Z,6.27
2023-04-26T02:34:18.006Z,6.64
2023-04-26T02:37:23.524Z,6.73
2023-04-26T02:40:28.089Z,6.66
2023-04-26T02:43:33.591Z,6.30
2023-04-26T02:46:38.261Z,5.99
2023-04-26T02:49:43.624Z,6.31
2023-04-26T02:52:48.173Z,6.17
2023-04-26T02:55:52.640Z,6.18
2023-04-26T02:58:57.162Z,6.48
2023-04-26T03:02:01.993Z,6.23
2023-04-26T03:05:06.746Z,6.37
2023-04-26T03:08:11.253Z,5.90
2023-04-26T03:11:15.949Z,6.16
2023-04-26T03:14:20.791Z,5.71
2023-04-26T03:17:25.744Z,6.49
2023-04-26T03:20:30.288Z,6.41
2023-04-26T03:23:34.860Z,6.66
2023-04-26T03:26:39.364Z,6.05
2023-04-26T03:29:44.299Z,6.09
2023-04-26T03:32:49.544Z,6.34
2023-04-26T03:35:55.959Z,6.29
2023-04-26T03:39:00.539Z,5.99
2023-04-26T03:42:05.212Z,6.10
2023-04-26T03:45:11.506Z,5.83
2023-04-26T03:48:17.060Z,5.87
2023-04-26T03:51:21.954Z,5.77
2023-04-26T03:54:27.957Z,5.49
2023-04-26T03:57:32.978Z,6.02
2023-04-26T04:00:39.109Z,5.63
2023-04-26T04:03:44.154Z,5.42
2023-04-26T04:06:48.742Z,5.36
2023-04-26T04:09:53.189Z,5.35
2023-04-26T04:12:58.215Z,5.59
2023-04-26T04:16:04.547Z,5.37
2023-04-26T04:19:09.312Z,5.56
2023-04-26T04:22:13.972Z,5.46
2023-04-26T04:25:21.088Z,5.46
2023-04-26T04:28:27.155Z,5.56
2023-04-26T04:31:31.917Z,5.10
2023-04-26T04:34:36.872Z,5.96
2023-04-26T04:37:43.922Z,6.13
2023-04-26T04:40:50.173Z,6.37
2023-04-26T04:43:55.848Z,6.22
2023-04-26T04:47:00.733Z,5.95
2023-04-26T04:50:09.171Z,6.40
2023-04-26T04:53:14.404Z,6.60
2023-04-26T04:56:21.790Z,6.40
2023-04-26T04:59:27.955Z,5.88
2023-04-26T05:02:33.010Z,5.76
2023-04-26T05:05:38.694Z,6.21
2023-04-26T05:08:43.163Z,6.24
2023-04-26T05:11:47.943Z,6.61
2023-04-26T05:14:53.871Z,6.54
2023-04-26T05:17:59.632Z,7.06
2023-04-26T05:21:04.449Z,7.08
2023-04-26T05:24:10.985Z,7.37
2023-04-26T05:27:16.440Z,6.85
2023-04-26T05:30:28.906Z,6.85
2023-04-26T05:33:42.487Z,6.98
2023-04-26T05:36:56.338Z,6.90
2023-04-26T05:40:00.853Z,7.26
2023-04-26T05:43:05.491Z,7.28
2023-04-26T05:46:12.021Z,6.96
2023-04-26T05:49:18.138Z,7.46
2023-04-26T05:52:22.652Z,7.24
2023-04-26T05:55:27.459Z,7.11
2023-04-26T05:58:33.986Z,7.38
2023-04-26T06:01:39.608Z,7.55
2023-04-26T06:04:44.540Z,7.59
2023-04-26T06:07:53.279Z,7.93
2023-04-26T06:10:57.811Z,7.42
2023-04-26T06:14:02.389Z,7.18
2023-04-26T06:17:09.541Z,7.46
2023-04-26T06:20:16.438Z,7.89
2023-04-26T06:23:21.107Z,7.88
2023-04-26T06:26:25.692Z,8.07
2023-04-26T06:29:32.852Z,8.14
2023-04-26T06:32:38.702Z,7.85
2023-04-26T06:35:43.557Z,7.19
2023-04-26T06:38:49.604Z,7.51
2023-04-26T06:41:54.747Z,7.99
2023-04-26T06:45:06.680Z,7.60
2023-04-26T06:48:13.949Z,7.86
2023-04-26T06:51:18.453Z,8.12
2023-04-26T06:54:28.881Z,8.31
2023-04-26T06:57:33.391Z,8.10
2023-04-26T07:00:38.014Z,8.17
2023-04-26T07:03:42.946Z,8.48
2023-04-26T07:06:47.706Z,8.02
2023-04-26T07:09:52.584Z,9.25
2023-04-26T07:12:57.050Z,9.09
2023-04-26T07:16:01.632Z,8.80
2023-04-26T07:19:06.966Z,8.09
2023-04-26T07:22:12.034Z,7.83
2023-04-26T07:25:17.315Z,8.12
2023-04-26T07:28:21.764Z,8.46
2023-04-26T07:31:26.318Z,8.29
2023-04-26T07:34:30.824Z,8.14
2023-04-26T07:37:35.387Z,8.63
2023-04-26T07:40:40.404Z,8.65
2023-04-26T07:43:44.813Z,8.68
2023-04-26T07:46:51.125Z,9.63
2023-04-26T07:49:55.671Z,8.75
2023-04-26T07:53:00.333Z,9.15
2023-04-26T07:56:07.695Z,8.98
2023-04-26T07:59:12.165Z,9.00
2023-04-26T08:02:17.132Z,9.31
2023-04-26T08:05:22.930Z,9.59
2023-04-26T08:08:28.070Z,8.21
2023-04-26T08:11:32.679Z,8.47
2023-04-26T08:14:38.421Z,9.53
2023-04-26T08:17:43.000Z,9.92
2023-04-26T08:20:47.627Z,10.45
2023-04-26T08:23:54.194Z,10.40
2023-04-26T08:26:59.140Z,10.26
2023-04-26T08:30:05.255Z,10.42
2023-04-26T08:33:10.290Z,9.91
2023-04-26T08:36:15.304Z,10.32
2023-04-26T08:39:19.791Z,10.13
2023-04-26T08:42:25.831Z,10.08
2023-04-26T08:45:31.227Z,9.51
2023-04-26T08:48:37.441Z,10.90
2023-04-26T08:51:44.835Z,10.27
2023-04-26T08:54:51.707Z,9.72
2023-04-26T08:57:58.445Z,10.36
2023-04-26T09:01:03.767Z,10.37
2023-04-26T09:04:08.941Z,11.43
2023-04-26T09:07:21.279Z,11.54
2023-04-26T09:10:26.300Z,11.16
2023-04-26T09:13:30.925Z,10.23
2023-04-26T09:16:36.903Z,10.29
2023-04-26T09:19:44.705Z,10.92
2023-04-26T09:22:54.617Z,10.89
2023-04-26T09:26:21.518Z,10.80
2023-04-26T09:29:26.025Z,11.09
2023-04-26T09:32:51.151Z,10.47
2023-04-26T09:35:55.681Z,11.30
2023-04-26T09:39:00.412Z,10.77
2023-04-26T09:42:05.264Z,11.33
2023-04-26T09:45:10.356Z,11.67
2023-04-26T09:48:33.238Z,11.78
2023-04-26T09:51:37.785Z,11.83
2023-04-26T09:54:46.637Z,11.01
2023-04-26T09:57:51.190Z,11.57
2023-04-26T10:00:56.412Z,12.33
2023-04-26T10:04:02.134Z,11.73
2023-04-26T10:07:10.020Z,12.31
2023-04-26T10:10:14.874Z,13.15
2023-04-26T10:13:19.603Z,12.18
2023-04-26T10:16:24.462Z,12.48
2023-04-26T10:19:32.893Z,11.28
2023-04-26T10:22:45.164Z,10.93
2023-04-26T10:25:49.816Z,11.29
2023-04-26T10:28:59.972Z,11.89
2023-04-26T10:32:08.154Z,11.77
2023-04-26T10:35:13.904Z,12.88
2023-04-26T10:38:20.043Z,13.19
2023-04-26T10:41:31.684Z,13.57
2023-04-26T10:44:42.759Z,13.19
2023-04-26T10:47:47.757Z,12.93
2023-04-26T10:51:01.752Z,11.58
2023-04-26T10:54:07.354Z,11.30
2023-04-26T10:57:12.316Z,10.73
2023-04-26T11:00:34.865Z,11.74
2023-04-26T11:03:41.278Z,11.98
2023-04-26T11:06:57.716Z,11.66
2023-04-26T11:10:09.454Z,12.98
2023-04-26T11:13:16.801Z,13.57
2023-04-26T11:16:21.611Z,13.52
2023-04-26T11:19:26.853Z,13.50
2023-04-26T11:22:31.476Z,12.14
2023-04-26T11:25:39.409Z,11.29
2023-04-26T11:28:45.289Z,13.93
2023-04-26T11:31:56.613Z,14.97
2023-04-26T11:35:01.373Z,15.10
2023-04-26T11:38:05.943Z,15.26
2023-04-26T11:41:11.347Z,14.14
2023-04-26T11:44:19.978Z,13.62
2023-04-26T11:47:26.035Z,11.32
2023-04-26T11:50:32.980Z,12.63
2023-04-26T11:53:43.733Z,12.26
2023-04-26T11:56:48.286Z,13.06
2023-04-26T12:00:08.734Z,13.95
2023-04-26T12:03:16.378Z,14.03
2023-04-26T12:06:29.033Z,13.07
2023-04-26T12:09:33.467Z,12.29
2023-04-26T12:12:37.913Z,12.80
2023-04-26T12:15:42.380Z,12.79
2023-04-26T12:18:51.983Z,15.47
2023-04-26T12:21:56.594Z,15.30
2023-04-26T12:25:07.465Z,17.17
2023-04-26T12:28:13.751Z,15.73
2023-04-26T12:31:18.510Z,12.63
2023-04-26T12:34:23.205Z,13.48
2023-04-26T12:37:27.736Z,13.25
2023-04-26T12:40:33.709Z,13.54
2023-04-26T12:43:38.143Z,13.13
2023-04-26T12:46:42.791Z,12.80
2023-04-26T12:49:47.305Z,13.74
2023-04-26T12:52:51.928Z,12.83
2023-04-26T12:55:56.361Z,15.33
2023-04-26T12:59:00.911Z,16.08
2023-04-26T13:02:05.714Z,14.41
2023-04-26T13:05:10.778Z,13.19
2023-04-26T13:08:15.611Z,12.49
2023-04-26T13:11:20.351Z,12.47
2023-04-26T13:14:24.910Z,12.69
2023-04-26T13:17:29.409Z,13.21
2023-04-26T13:20:34.015Z,13.16
2023-04-26T13:23:38.536Z,13.06
2023-04-26T13:26:43.035Z,12.66
2023-04-26T13:29:47.486Z,14.35
2023-04-26T13:32:52.599Z,14.94
2023-04-26T13:35:57.049Z,15.23
2023-04-26T13:39:01.721Z,15.60
2023-04-26T13:42:06.184Z,16.43
2023-04-26T13:45:11.190Z,16.13
2023-04-26T13:48:16.004Z,16.42
2023-04-26T13:51:21.721Z,14.39
2023-04-26T13:54:26.913Z,14.72
2023-04-26T13:57:32.715Z,13.67
2023-04-26T14:00:37.650Z,14.73
2023-04-26T14:03:42.790Z,15.22
2023-04-26T14:06:47.505Z,13.20
2023-04-26T14:09:52.066Z,14.47
2023-04-26T14:12:56.780Z,15.61
2023-04-26T14:16:01.452Z,15.82
2023-04-26T14:19:07.969Z,15.14
2023-04-26T14:22:12.944Z,15.46
2023-04-26T14:25:17.613Z,17.24
2023-04-26T14:28:22.319Z,16.91
2023-04-26T14:31:28.103Z,17.35
2023-04-26T14:34:34.288Z,16.94
2023-04-26T14:37:39.894Z,15.96
2023-04-26T14:40:45.408Z,15.15
2023-04-26T14:43:50.745Z,14.78
2023-04-26T14:46:55.259Z,14.18
2023-04-26T14:49:59.915Z,14.13
2023-04-26T14:53:04.572Z,15.17
2023-04-26T14:56:09.482Z,14.60
2023-04-26T14:59:15.965Z,15.87
2023-04-26T15:02:21.533Z,15.53
2023-04-26T15:05:26.298Z,16.16
2023-04-26T15:08:30.838Z,15.75
2023-04-26T15:11:35.395Z,14.47
2023-04-26T15:14:39.874Z,14.95
2023-04-26T15:17:44.455Z,15.00
2023-04-26T15:20:49.044Z,15.28
2023-04-26T15:23:53.790Z,14.92
2023-04-26T15:26:58.270Z,14.10
2023-04-26T15:30:05.713Z,14.84
2023-04-26T15:33:12.653Z,15.72
2023-04-26T15:36:19.710Z,15.87
2023-04-26T15:39:24.188Z,16.14
2023-04-26T15:42:28.671Z,16.68
2023-04-26T15:45:35.707Z,16.47
2023-04-26T15:48:40.372Z,15.17
2023-04-26T15:51:44.861Z,16.51
2023-04-26T15:54:49.344Z,16.69
2023-04-26T15:57:53.886Z,15.93
2023-04-26T16:00:58.343Z,14.22
2023-04-26T16:04:05.213Z,13.44
2023-04-26T16:07:09.864Z,13.32
2023-04-26T16:10:14.556Z,12.95
2023-04-26T16:13:20.831Z,12.96
2023-04-26T16:16:25.686Z,12.91
2023-04-26T16:19:30.963Z,12.74
2023-04-26T16:22:36.998Z,12.27
2023-04-26T16:25:42.568Z,13.19
2023-04-26T16:28:47.247Z,12.64
2023-04-26T16:31:52.465Z,12.79
2023-04-26T16:34:57.189Z,12.72
2023-04-26T16:38:01.838Z,13.20
2023-04-26T16:41:07.206Z,13.09
2023-04-26T16:44:11.669Z,12.98
2023-04-26T16:47:16.113Z,13.46
2023-04-26T16:50:20.766Z,13.64
2023-04-26T16:53:25.215Z,12.57
2023-04-26T16:56:30.021Z,12.82
2023-04-26T16:59:34.534Z,12.65
2023-04-26T17:02:40.335Z,12.91
2023-04-26T17:05:46.992Z,13.67
2023-04-26T17:08:51.717Z,12.70
2023-04-26T17:11:56.220Z,11.89
2023-04-26T17:15:04.344Z,12.25
2023-04-26T17:18:09.962Z,12.23
2023-04-26T17:21:14.486Z,12.05
2023-04-26T17:24:19.382Z,12.37
2023-04-26T17:27:24.801Z,12.07
2023-04-26T17:30:29.349Z,11.71
2023-04-26T17:33:36.796Z,11.74
2023-04-26T17:36:41.280Z,11.73
2023-04-26T17:39:45.901Z,11.38
2023-04-26T17:42:50.575Z,11.21
2023-04-26T17:45:55.597Z,11.35
2023-04-26T17:49:00.236Z,11.25
2023-04-26T17:52:04.844Z,11.42
2023-04-26T17:55:10.105Z,10.89
2023-04-26T17:58:15.292Z,11.00
2023-04-26T18:01:21.024Z,10.77
2023-04-26T18:04:25.801Z,10.30
2023-04-26T18:07:30.585Z,10.16
2023-04-26T18:10:35.433Z,10.05
2023-04-26T18:13:39.856Z,10.04
2023-04-26T18:16:44.365Z,10.37
2023-04-26T18:19:49.895Z,10.24
2023-04-26T18:22:54.428Z,10.30
2023-04-26T18:25:58.892Z,9.97
2023-04-26T18:29:03.449Z,10.02
2023-04-26T18:32:08.094Z,10.30
2023-04-26T18:35:12.767Z,10.25
2023-04-26T18:38:17.630Z,10.07
2023-04-26T18:41:23.716Z,9.88
2023-04-26T18:44:28.260Z,10.02
2023-04-26T18:47:34.851Z,9.63
2023-04-26T18:50:39.387Z,9.96
2023-04-26T18:53:44.614Z,10.13
2023-04-26T18:56:49.176Z,9.68
2023-04-26T18:59:56.455Z,10.06
2023-04-26T19:03:01.129Z,10.02
2023-04-26T19:06:09.397Z,9.77
2023-04-26T19:09:14.436Z,9.59
2023-04-26T19:12:19.106Z,11.07
2023-04-26T19:15:23.594Z,10.32
2023-04-26T19:18:28.162Z,9.48
2023-04-26T19:21:33.110Z,9.45
2023-04-26T19:24:37.663Z,10.70
2023-04-26T19:27:42.254Z,11.30
2023-04-26T19:30:46.755Z,10.24
2023-04-26T19:33:51.486Z,8.97
2023-04-26T19:36:56.016Z,8.61
2023-04-26T19:40:00.647Z,8.49
2023-04-26T19:43:05.229Z,8.68
2023-04-26T19:46:15.150Z,8.88
2023-04-26T19:49:19.825Z,8.43
2023-04-26T19:52:24.413Z,8.71
2023-04-26T19:55:29.548Z,8.37
2023-04-26T19:58:34.094Z,8.99
2023-04-26T20:01:38.689Z,8.63
2023-04-26T20:04:44.940Z,8.33
2023-04-26T20:07:49.443Z,8.96
2023-04-26T20:10:53.876Z,8.78
2023-04-26T20:13:58.458Z,8.75
2023-04-26T20:17:03.192Z,8.31
2023-04-26T20:20:08.925Z,8.08
2023-04-26T20:23:13.422Z,8.31
2023-04-26T20:26:17.915Z,8.14
2023-04-26T20:29:22.616Z,7.90
2023-04-26T20:32:27.080Z,7.80
2023-04-26T20:35:31.644Z,8.29
2023-04-26T20:38:36.169Z,8.24
2023-04-26T20:41:40.823Z,7.79
2023-04-26T20:44:45.647Z,7.65
2023-04-26T20:47:50.101Z,7.30
2023-04-26T20:50:55.022Z,7.21
2023-04-26T20:53:59.511Z,7.77
2023-04-26T20:57:04.410Z,7.82
2023-04-26T21:00:13.101Z,7.63
2023-04-26T21:03:17.706Z,7.90
2023-04-26T21:06:22.321Z,7.15
2023-04-26T21:09:26.817Z,7.23
2023-04-26T21:12:31.290Z,7.55
2023-04-26T21:15:35.949Z,7.24
2023-04-26T21:18:40.724Z,6.92
2023-04-26T21:21:45.379Z,7.39
2023-04-26T21:24:52.871Z,6.58
2023-04-26T21:27:58.701Z,6.96
2023-04-26T21:31:07.492Z,7.01
2023-04-26T21:34:13.707Z,7.07
2023-04-26T21:37:18.256Z,7.12
2023-04-26T21:40:22.735Z,7.22
2023-04-26T21:43:29.013Z,6.89
2023-04-26T21:46:33.712Z,6.42
2023-04-26T21:49:39.583Z,6.34
2023-04-26T21:52:44.164Z,6.99
2023-04-26T21:55:52.762Z,6.49
2023-04-26T21:58:57.345Z,6.01
2023-04-26T22:02:02.929Z,5.90
2023-04-26T22:05:07.897Z,5.91
2023-04-26T22:08:12.405Z,5.67
2023-04-26T22:11:16.970Z,5.62
2023-04-26T22:14:21.629Z,5.61
2023-04-26T22:17:26.300Z,4.99
2023-04-26T22:20:30.949Z,5.51
2023-04-26T22:23:36.714Z,5.79
2023-04-26T22:26:41.299Z,6.02
2023-04-26T22:29:45.974Z,6.37
2023-04-26T22:32:53.536Z,5.39
2023-04-26T22:35:59.486Z,5.71
2023-04-26T22:39:03.994Z,5.43
2023-04-26T22:42:08.637Z,6.29
2023-04-26T22:45:13.697Z,6.00
2023-04-26T22:48:18.246Z,5.74
2023-04-26T22:51:22.921Z,5.76
2023-04-26T22:54:27.372Z,5.71
2023-04-26T22:57:31.903Z,5.67
2023-04-26T23:00:36.622Z,5.73
2023-04-26T23:03:41.374Z,5.71
2023-04-26T23:06:46.097Z,5.75
2023-04-26T23:09:50.654Z,5.29
2023-04-26T23:12:55.348Z,5.22
2023-04-26T23:15:59.823Z,5.13
2023-04-26T23:19:04.364Z,5.03
2023-04-26T23:22:09.051Z,4.69
2023-04-26T23:25:13.539Z,4.91
2023-04-26T23:28:18.102Z,4.83
2023-04-26T23:31:22.794Z,4.95
2023-04-26T23:34:27.363Z,4.78
2023-04-26T23:37:31.937Z,4.63
2023-04-26T23:40:37.195Z,4.77
2023-04-26T23:43:42.089Z,4.84
2023-04-26T23:46:46.818Z,4.69
2023-04-26T23:49:52.697Z,4.88
2023-04-26T23:52:57.242Z,4.92
2023-04-26T23:56:01.794Z,4.86
2023-04-26T23:59:06.754Z,4.84
